sensor_id;sensor_type;location;lat;lon;timestamp;P1;durP1;ratioP1;P2;durP2;ratioP2
67274;SDS011;55463;52.324;5.122;2024-02-21T00:01:41;29.77;;;4.97;;
67274;SDS011;55463;52.324;5.122;2024-02-21T00:04:07;22.98;;;4.75;;
67274;SDS011;55463;52.324;5.122;2024-02-21T00:06:32;22.25;;;3.53;;
67274;SDS011;55463;52.324;5.122;2024-02-21T00:08:58;20.30;;;3.60;;
67274;SDS011;55463;52.324;5.122;2024-02-21T00:11:23;24.02;;;4.20;;
67274;SDS011;55463;52.324;5.122;2024-02-21T00:13:49;22.02;;;3.72;;
67274;SDS011;55463;52.324;5.122;2024-02-21T00:16:15;24.33;;;4.00;;
67274;SDS011;55463;52.324;5.122;2024-02-21T00:18:41;31.30;;;4.13;;
67274;SDS011;55463;52.324;5.122;2024-02-21T00:21:07;24.88;;;4.13;;
67274;SDS011;55463;52.324;5.122;2024-02-21T00:23:32;24.27;;;4.22;;
67274;SDS011;55463;52.324;5.122;2024-02-21T00:25:57;23.38;;;3.97;;
67274;SDS011;55463;52.324;5.122;2024-02-21T00:28:23;36.15;;;5.35;;
67274;SDS011;55463;52.324;5.122;2024-02-21T00:30:48;25.40;;;3.67;;
67274;SDS011;55463;52.324;5.122;2024-02-21T00:33:15;23.45;;;3.92;;
67274;SDS011;55463;52.324;5.122;2024-02-21T00:35:41;32.30;;;4.43;;
67274;SDS011;55463;52.324;5.122;2024-02-21T00:38:07;22.27;;;4.20;;
67274;SDS011;55463;52.324;5.122;2024-02-21T00:40:32;19.70;;;3.22;;
67274;SDS011;55463;52.324;5.122;2024-02-21T00:42:58;22.23;;;3.97;;
67274;SDS011;55463;52.324;5.122;2024-02-21T00:45:23;22.70;;;3.40;;
67274;SDS011;55463;52.324;5.122;2024-02-21T00:47:48;21.60;;;3.80;;
67274;SDS011;55463;52.324;5.122;2024-02-21T00:50:14;19.50;;;3.88;;
67274;SDS011;55463;52.324;5.122;2024-02-21T00:52:42;24.50;;;4.85;;
67274;SDS011;55463;52.324;5.122;2024-02-21T00:55:08;24.42;;;3.67;;
67274;SDS011;55463;52.324;5.122;2024-02-21T00:57:34;24.40;;;3.78;;
67274;SDS011;55463;52.324;5.122;2024-02-21T01:00:00;24.85;;;4.40;;
67274;SDS011;55463;52.324;5.122;2024-02-21T01:02:25;25.08;;;3.83;;
67274;SDS011;55463;52.324;5.122;2024-02-21T01:04:51;25.02;;;3.50;;
67274;SDS011;55463;52.324;5.122;2024-02-21T01:07:16;22.95;;;3.70;;
67274;SDS011;55463;52.324;5.122;2024-02-21T01:09:42;22.92;;;3.83;;
67274;SDS011;55463;52.324;5.122;2024-02-21T01:12:07;28.08;;;4.38;;
67274;SDS011;55463;52.324;5.122;2024-02-21T01:14:32;26.75;;;4.28;;
67274;SDS011;55463;52.324;5.122;2024-02-21T01:16:58;20.75;;;3.60;;
67274;SDS011;55463;52.324;5.122;2024-02-21T01:19:23;29.92;;;4.57;;
67274;SDS011;55463;52.324;5.122;2024-02-21T01:21:48;25.92;;;3.90;;
67274;SDS011;55463;52.324;5.122;2024-02-21T01:24:14;18.05;;;4.15;;
67274;SDS011;55463;52.324;5.122;2024-02-21T01:26:40;36.78;;;4.15;;
67274;SDS011;55463;52.324;5.122;2024-02-21T01:29:06;27.33;;;4.25;;
67274;SDS011;55463;52.324;5.122;2024-02-21T01:31:31;22.05;;;3.90;;
67274;SDS011;55463;52.324;5.122;2024-02-21T01:33:57;28.42;;;4.40;;
67274;SDS011;55463;52.324;5.122;2024-02-21T01:36:23;27.25;;;4.43;;
67274;SDS011;55463;52.324;5.122;2024-02-21T01:38:48;26.63;;;3.92;;
67274;SDS011;55463;52.324;5.122;2024-02-21T01:41:14;29.15;;;4.40;;
67274;SDS011;55463;52.324;5.122;2024-02-21T01:43:39;36.08;;;4.60;;
67274;SDS011;55463;52.324;5.122;2024-02-21T01:46:04;25.17;;;4.80;;
67274;SDS011;55463;52.324;5.122;2024-02-21T01:48:30;22.77;;;3.78;;
67274;SDS011;55463;52.324;5.122;2024-02-21T01:50:55;21.00;;;3.55;;
67274;SDS011;55463;52.324;5.122;2024-02-21T01:53:29;29.02;;;4.50;;
67274;SDS011;55463;52.324;5.122;2024-02-21T01:55:57;34.63;;;4.78;;
67274;SDS011;55463;52.324;5.122;2024-02-21T01:58:23;28.85;;;4.90;;
67274;SDS011;55463;52.324;5.122;2024-02-21T02:00:49;28.05;;;4.57;;
67274;SDS011;55463;52.324;5.122;2024-02-21T02:03:15;21.15;;;4.10;;
67274;SDS011;55463;52.324;5.122;2024-02-21T02:05:44;18.05;;;3.78;;
67274;SDS011;55463;52.324;5.122;2024-02-21T02:08:11;32.35;;;5.13;;
67274;SDS011;55463;52.324;5.122;2024-02-21T02:10:39;24.63;;;3.88;;
67274;SDS011;55463;52.324;5.122;2024-02-21T02:13:05;29.08;;;4.78;;
67274;SDS011;55463;52.324;5.122;2024-02-21T02:16:04;29.15;;;4.28;;
67274;SDS011;55463;52.324;5.122;2024-02-21T02:18:22;23.77;;;4.32;;
67274;SDS011;55463;52.324;5.122;2024-02-21T02:20:48;28.80;;;4.90;;
67274;SDS011;55463;52.324;5.122;2024-02-21T02:23:32;27.67;;;4.63;;
67274;SDS011;55463;52.324;5.122;2024-02-21T02:25:58;25.25;;;4.03;;
67274;SDS011;55463;52.324;5.122;2024-02-21T02:28:24;27.95;;;4.38;;
67274;SDS011;55463;52.324;5.122;2024-02-21T02:30:52;23.45;;;3.97;;
67274;SDS011;55463;52.324;5.122;2024-02-21T02:33:26;24.30;;;4.40;;
67274;SDS011;55463;52.324;5.122;2024-02-21T02:35:52;34.25;;;4.53;;
67274;SDS011;55463;52.324;5.122;2024-02-21T02:38:17;27.02;;;4.90;;
67274;SDS011;55463;52.324;5.122;2024-02-21T02:40:43;23.90;;;5.00;;
67274;SDS011;55463;52.324;5.122;2024-02-21T02:43:08;25.10;;;4.20;;
67274;SDS011;55463;52.324;5.122;2024-02-21T02:45:34;22.50;;;3.85;;
67274;SDS011;55463;52.324;5.122;2024-02-21T02:47:59;31.40;;;4.40;;
67274;SDS011;55463;52.324;5.122;2024-02-21T02:50:25;34.47;;;5.45;;
67274;SDS011;55463;52.324;5.122;2024-02-21T02:52:52;25.58;;;4.32;;
67274;SDS011;55463;52.324;5.122;2024-02-21T02:55:20;23.77;;;4.28;;
67274;SDS011;55463;52.324;5.122;2024-02-21T02:57:45;26.50;;;4.10;;
67274;SDS011;55463;52.324;5.122;2024-02-21T03:00:11;29.00;;;4.47;;
67274;SDS011;55463;52.324;5.122;2024-02-21T03:02:38;37.60;;;5.68;;
67274;SDS011;55463;52.324;5.122;2024-02-21T03:05:15;30.25;;;4.53;;
67274;SDS011;55463;52.324;5.122;2024-02-21T03:07:41;27.20;;;5.25;;
67274;SDS011;55463;52.324;5.122;2024-02-21T03:10:07;24.60;;;3.95;;
67274;SDS011;55463;52.324;5.122;2024-02-21T03:12:33;30.77;;;3.88;;
67274;SDS011;55463;52.324;5.122;2024-02-21T03:14:58;28.20;;;5.97;;
67274;SDS011;55463;52.324;5.122;2024-02-21T03:17:24;28.38;;;4.32;;
67274;SDS011;55463;52.324;5.122;2024-02-21T03:19:52;26.02;;;4.47;;
67274;SDS011;55463;52.324;5.122;2024-02-21T03:22:17;29.77;;;4.35;;
67274;SDS011;55463;52.324;5.122;2024-02-21T03:24:43;21.90;;;3.85;;
67274;SDS011;55463;52.324;5.122;2024-02-21T03:27:08;20.45;;;3.90;;
67274;SDS011;55463;52.324;5.122;2024-02-21T03:29:37;30.33;;;4.35;;
67274;SDS011;55463;52.324;5.122;2024-02-21T03:32:03;30.33;;;4.47;;
67274;SDS011;55463;52.324;5.122;2024-02-21T03:34:28;16.40;;;3.55;;
67274;SDS011;55463;52.324;5.122;2024-02-21T03:36:54;30.95;;;4.82;;
67274;SDS011;55463;52.324;5.122;2024-02-21T03:39:19;29.08;;;4.50;;
67274;SDS011;55463;52.324;5.122;2024-02-21T03:41:46;24.55;;;4.85;;
67274;SDS011;55463;52.324;5.122;2024-02-21T03:44:11;33.00;;;4.60;;
67274;SDS011;55463;52.324;5.122;2024-02-21T03:46:37;24.48;;;4.72;;
67274;SDS011;55463;52.324;5.122;2024-02-21T03:49:02;20.02;;;4.80;;
67274;SDS011;55463;52.324;5.122;2024-02-21T03:51:28;29.25;;;4.40;;
67274;SDS011;55463;52.324;5.122;2024-02-21T03:53:53;27.70;;;4.35;;
67274;SDS011;55463;52.324;5.122;2024-02-21T03:56:18;28.42;;;5.10;;
67274;SDS011;55463;52.324;5.122;2024-02-21T03:58:44;24.25;;;3.95;;
67274;SDS011;55463;52.324;5.122;2024-02-21T04:01:09;32.88;;;4.75;;
67274;SDS011;55463;52.324;5.122;2024-02-21T04:03:35;23.15;;;4.03;;
67274;SDS011;55463;52.324;5.122;2024-02-21T04:06:00;30.38;;;4.30;;
67274;SDS011;55463;52.324;5.122;2024-02-21T04:08:25;34.97;;;6.00;;
67274;SDS011;55463;52.324;5.122;2024-02-21T04:10:51;36.70;;;5.65;;
67274;SDS011;55463;52.324;5.122;2024-02-21T04:13:16;28.05;;;5.35;;
67274;SDS011;55463;52.324;5.122;2024-02-21T04:15:42;28.20;;;4.53;;
67274;SDS011;55463;52.324;5.122;2024-02-21T04:18:07;24.15;;;4.78;;
67274;SDS011;55463;52.324;5.122;2024-02-21T04:20:33;20.67;;;4.05;;
67274;SDS011;55463;52.324;5.122;2024-02-21T04:22:59;24.98;;;5.32;;
67274;SDS011;55463;52.324;5.122;2024-02-21T04:25:25;28.95;;;4.88;;
67274;SDS011;55463;52.324;5.122;2024-02-21T04:27:51;26.55;;;5.03;;
67274;SDS011;55463;52.324;5.122;2024-02-21T04:30:16;20.90;;;4.93;;
67274;SDS011;55463;52.324;5.122;2024-02-21T04:32:42;23.17;;;4.90;;
67274;SDS011;55463;52.324;5.122;2024-02-21T04:35:08;28.58;;;5.13;;
67274;SDS011;55463;52.324;5.122;2024-02-21T04:37:33;27.65;;;4.88;;
67274;SDS011;55463;52.324;5.122;2024-02-21T04:39:59;26.60;;;4.72;;
67274;SDS011;55463;52.324;5.122;2024-02-21T04:42:25;23.88;;;4.68;;
67274;SDS011;55463;52.324;5.122;2024-02-21T04:44:50;18.00;;;4.60;;
67274;SDS011;55463;52.324;5.122;2024-02-21T04:47:16;18.35;;;4.80;;
67274;SDS011;55463;52.324;5.122;2024-02-21T04:49:41;21.23;;;5.50;;
67274;SDS011;55463;52.324;5.122;2024-02-21T04:52:07;19.30;;;4.88;;
67274;SDS011;55463;52.324;5.122;2024-02-21T04:54:32;30.52;;;5.03;;
67274;SDS011;55463;52.324;5.122;2024-02-21T04:57:00;17.75;;;4.18;;
67274;SDS011;55463;52.324;5.122;2024-02-21T04:59:25;21.55;;;5.10;;
67274;SDS011;55463;52.324;5.122;2024-02-21T05:01:50;22.95;;;4.60;;
67274;SDS011;55463;52.324;5.122;2024-02-21T05:04:16;18.23;;;4.70;;
67274;SDS011;55463;52.324;5.122;2024-02-21T05:06:41;18.33;;;5.05;;
67274;SDS011;55463;52.324;5.122;2024-02-21T05:09:07;17.67;;;5.32;;
67274;SDS011;55463;52.324;5.122;2024-02-21T05:11:34;25.00;;;5.40;;
67274;SDS011;55463;52.324;5.122;2024-02-21T05:14:00;21.15;;;5.95;;
67274;SDS011;55463;52.324;5.122;2024-02-21T05:16:25;16.83;;;5.35;;
67274;SDS011;55463;52.324;5.122;2024-02-21T05:18:50;15.35;;;5.70;;
67274;SDS011;55463;52.324;5.122;2024-02-21T05:21:16;14.98;;;6.05;;
67274;SDS011;55463;52.324;5.122;2024-02-21T05:23:41;24.60;;;6.47;;
67274;SDS011;55463;52.324;5.122;2024-02-21T05:26:07;14.95;;;6.97;;
67274;SDS011;55463;52.324;5.122;2024-02-21T05:28:32;19.45;;;7.55;;
67274;SDS011;55463;52.324;5.122;2024-02-21T05:30:58;18.75;;;7.63;;
67274;SDS011;55463;52.324;5.122;2024-02-21T05:33:23;27.73;;;9.25;;
67274;SDS011;55463;52.324;5.122;2024-02-21T05:35:49;22.30;;;9.18;;
67274;SDS011;55463;52.324;5.122;2024-02-21T05:38:15;25.25;;;9.30;;
67274;SDS011;55463;52.324;5.122;2024-02-21T05:40:40;21.77;;;9.57;;
67274;SDS011;55463;52.324;5.122;2024-02-21T05:43:09;21.15;;;10.15;;
67274;SDS011;55463;52.324;5.122;2024-02-21T05:45:35;27.08;;;10.07;;
67274;SDS011;55463;52.324;5.122;2024-02-21T05:48:02;24.02;;;10.73;;
67274;SDS011;55463;52.324;5.122;2024-02-21T05:50:28;23.33;;;10.20;;
67274;SDS011;55463;52.324;5.122;2024-02-21T05:52:54;24.23;;;9.70;;
67274;SDS011;55463;52.324;5.122;2024-02-21T05:55:20;20.30;;;10.00;;
67274;SDS011;55463;52.324;5.122;2024-02-21T05:57:46;21.02;;;9.98;;
67274;SDS011;55463;52.324;5.122;2024-02-21T06:00:11;21.38;;;9.77;;
67274;SDS011;55463;52.324;5.122;2024-02-21T06:02:37;18.13;;;10.27;;
67274;SDS011;55463;52.324;5.122;2024-02-21T06:05:03;24.48;;;9.90;;
67274;SDS011;55463;52.324;5.122;2024-02-21T06:07:31;14.70;;;7.47;;
67274;SDS011;55463;52.324;5.122;2024-02-21T06:09:57;18.23;;;7.95;;
67274;SDS011;55463;52.324;5.122;2024-02-21T06:12:22;13.73;;;8.07;;
67274;SDS011;55463;52.324;5.122;2024-02-21T06:14:47;20.60;;;7.88;;
67274;SDS011;55463;52.324;5.122;2024-02-21T06:17:13;19.05;;;7.90;;
67274;SDS011;55463;52.324;5.122;2024-02-21T06:19:42;12.88;;;7.38;;
67274;SDS011;55463;52.324;5.122;2024-02-21T06:22:08;14.93;;;8.27;;
67274;SDS011;55463;52.324;5.122;2024-02-21T06:24:36;14.52;;;8.48;;
67274;SDS011;55463;52.324;5.122;2024-02-21T06:27:05;21.05;;;8.73;;
67274;SDS011;55463;52.324;5.122;2024-02-21T06:29:31;19.27;;;8.35;;
67274;SDS011;55463;52.324;5.122;2024-02-21T06:31:57;23.17;;;8.77;;
67274;SDS011;55463;52.324;5.122;2024-02-21T06:34:23;23.40;;;8.85;;
67274;SDS011;55463;52.324;5.122;2024-02-21T06:36:49;17.92;;;8.43;;
67274;SDS011;55463;52.324;5.122;2024-02-21T06:39:14;15.50;;;8.43;;
67274;SDS011;55463;52.324;5.122;2024-02-21T06:41:40;19.40;;;8.80;;
67274;SDS011;55463;52.324;5.122;2024-02-21T06:44:05;16.52;;;8.73;;
67274;SDS011;55463;52.324;5.122;2024-02-21T06:46:31;18.85;;;8.48;;
67274;SDS011;55463;52.324;5.122;2024-02-21T06:48:58;24.20;;;9.00;;
67274;SDS011;55463;52.324;5.122;2024-02-21T06:51:25;12.73;;;8.07;;
67274;SDS011;55463;52.324;5.122;2024-02-21T06:53:51;18.10;;;9.65;;
67274;SDS011;55463;52.324;5.122;2024-02-21T06:56:16;17.65;;;9.35;;
67274;SDS011;55463;52.324;5.122;2024-02-21T06:58:44;24.77;;;9.93;;
67274;SDS011;55463;52.324;5.122;2024-02-21T07:01:10;17.83;;;9.80;;
67274;SDS011;55463;52.324;5.122;2024-02-21T07:03:36;17.52;;;9.98;;
67274;SDS011;55463;52.324;5.122;2024-02-21T07:06:02;27.63;;;10.57;;
67274;SDS011;55463;52.324;5.122;2024-02-21T07:08:27;24.23;;;9.35;;
67274;SDS011;55463;52.324;5.122;2024-02-21T07:10:53;23.38;;;10.15;;
67274;SDS011;55463;52.324;5.122;2024-02-21T07:13:18;21.90;;;9.43;;
67274;SDS011;55463;52.324;5.122;2024-02-21T07:15:44;22.10;;;9.85;;
67274;SDS011;55463;52.324;5.122;2024-02-21T07:18:09;17.00;;;9.70;;
67274;SDS011;55463;52.324;5.122;2024-02-21T07:20:34;24.15;;;10.20;;
67274;SDS011;55463;52.324;5.122;2024-02-21T07:23:03;21.00;;;9.75;;
67274;SDS011;55463;52.324;5.122;2024-02-21T07:25:29;26.38;;;10.20;;
67274;SDS011;55463;52.324;5.122;2024-02-21T07:27:54;22.02;;;9.18;;
67274;SDS011;55463;52.324;5.122;2024-02-21T07:30:19;22.77;;;10.05;;
67274;SDS011;55463;52.324;5.122;2024-02-21T07:32:45;21.23;;;9.38;;
67274;SDS011;55463;52.324;5.122;2024-02-21T07:35:10;23.15;;;9.80;;
67274;SDS011;55463;52.324;5.122;2024-02-21T07:37:37;21.17;;;9.70;;
67274;SDS011;55463;52.324;5.122;2024-02-21T07:40:03;30.17;;;10.02;;
67274;SDS011;55463;52.324;5.122;2024-02-21T07:42:30;25.02;;;9.60;;
67274;SDS011;55463;52.324;5.122;2024-02-21T07:44:56;22.58;;;9.93;;
67274;SDS011;55463;52.324;5.122;2024-02-21T07:47:22;22.42;;;10.13;;
67274;SDS011;55463;52.324;5.122;2024-02-21T07:49:47;22.58;;;9.32;;
67274;SDS011;55463;52.324;5.122;2024-02-21T07:52:13;18.90;;;9.60;;
67274;SDS011;55463;52.324;5.122;2024-02-21T07:54:39;20.60;;;9.25;;
67274;SDS011;55463;52.324;5.122;2024-02-21T07:57:06;26.13;;;9.25;;
67274;SDS011;55463;52.324;5.122;2024-02-21T07:59:32;20.10;;;9.23;;
67274;SDS011;55463;52.324;5.122;2024-02-21T08:01:57;32.90;;;10.23;;
67274;SDS011;55463;52.324;5.122;2024-02-21T08:04:23;25.92;;;10.63;;
67274;SDS011;55463;52.324;5.122;2024-02-21T08:06:54;28.75;;;9.48;;
67274;SDS011;55463;52.324;5.122;2024-02-21T08:09:21;20.77;;;10.02;;
67274;SDS011;55463;52.324;5.122;2024-02-21T08:11:49;25.42;;;10.15;;
67274;SDS011;55463;52.324;5.122;2024-02-21T08:14:15;23.42;;;10.32;;
67274;SDS011;55463;52.324;5.122;2024-02-21T08:16:41;27.52;;;10.00;;
67274;SDS011;55463;52.324;5.122;2024-02-21T08:19:07;22.02;;;10.40;;
67274;SDS011;55463;52.324;5.122;2024-02-21T08:21:33;21.77;;;10.20;;
67274;SDS011;55463;52.324;5.122;2024-02-21T08:24:00;23.92;;;9.63;;
67274;SDS011;55463;52.324;5.122;2024-02-21T08:26:26;22.23;;;10.50;;
67274;SDS011;55463;52.324;5.122;2024-02-21T08:28:55;22.00;;;10.20;;
67274;SDS011;55463;52.324;5.122;2024-02-21T08:31:23;17.25;;;9.27;;
67274;SDS011;55463;52.324;5.122;2024-02-21T08:33:55;21.95;;;9.95;;
67274;SDS011;55463;52.324;5.122;2024-02-21T08:36:27;20.75;;;10.45;;
67274;SDS011;55463;52.324;5.122;2024-02-21T08:38:52;23.73;;;9.93;;
67274;SDS011;55463;52.324;5.122;2024-02-21T08:41:17;21.95;;;9.70;;
67274;SDS011;55463;52.324;5.122;2024-02-21T08:43:43;22.50;;;10.48;;
67274;SDS011;55463;52.324;5.122;2024-02-21T08:46:08;20.83;;;9.68;;
67274;SDS011;55463;52.324;5.122;2024-02-21T08:48:34;22.02;;;10.82;;
67274;SDS011;55463;52.324;5.122;2024-02-21T08:50:59;25.38;;;10.50;;
67274;SDS011;55463;52.324;5.122;2024-02-21T08:53:24;23.15;;;9.98;;
67274;SDS011;55463;52.324;5.122;2024-02-21T08:55:50;25.10;;;9.88;;
67274;SDS011;55463;52.324;5.122;2024-02-21T08:58:15;27.05;;;10.30;;
67274;SDS011;55463;52.324;5.122;2024-02-21T09:00:40;23.73;;;10.23;;
67274;SDS011;55463;52.324;5.122;2024-02-21T09:03:07;21.38;;;10.73;;
67274;SDS011;55463;52.324;5.122;2024-02-21T09:05:32;26.52;;;10.25;;
67274;SDS011;55463;52.324;5.122;2024-02-21T09:08:00;21.35;;;10.77;;
67274;SDS011;55463;52.324;5.122;2024-02-21T09:10:25;28.45;;;10.63;;
67274;SDS011;55463;52.324;5.122;2024-02-21T09:12:51;20.67;;;10.15;;
67274;SDS011;55463;52.324;5.122;2024-02-21T09:15:18;21.10;;;10.23;;
67274;SDS011;55463;52.324;5.122;2024-02-21T09:17:44;18.27;;;10.63;;
67274;SDS011;55463;52.324;5.122;2024-02-21T09:20:11;19.45;;;10.55;;
67274;SDS011;55463;52.324;5.122;2024-02-21T09:22:37;25.00;;;11.25;;
67274;SDS011;55463;52.324;5.122;2024-02-21T09:25:04;31.50;;;12.30;;
67274;SDS011;55463;52.324;5.122;2024-02-21T09:27:31;26.92;;;12.50;;
67274;SDS011;55463;52.324;5.122;2024-02-21T09:29:56;21.95;;;12.32;;
67274;SDS011;55463;52.324;5.122;2024-02-21T09:32:22;27.38;;;11.25;;
67274;SDS011;55463;52.324;5.122;2024-02-21T09:34:47;24.45;;;12.35;;
67274;SDS011;55463;52.324;5.122;2024-02-21T09:37:15;23.98;;;12.32;;
67274;SDS011;55463;52.324;5.122;2024-02-21T09:39:46;25.95;;;12.50;;
67274;SDS011;55463;52.324;5.122;2024-02-21T09:42:12;25.25;;;12.35;;
67274;SDS011;55463;52.324;5.122;2024-02-21T09:44:45;22.67;;;11.90;;
67274;SDS011;55463;52.324;5.122;2024-02-21T09:47:22;23.58;;;12.32;;
67274;SDS011;55463;52.324;5.122;2024-02-21T09:49:52;25.35;;;12.32;;
67274;SDS011;55463;52.324;5.122;2024-02-21T09:52:19;22.45;;;11.93;;
67274;SDS011;55463;52.324;5.122;2024-02-21T09:54:46;23.33;;;11.40;;
67274;SDS011;55463;52.324;5.122;2024-02-21T09:57:13;29.63;;;11.93;;
67274;SDS011;55463;52.324;5.122;2024-02-21T09:59:40;21.40;;;11.63;;
67274;SDS011;55463;52.324;5.122;2024-02-21T10:02:08;22.40;;;11.15;;
67274;SDS011;55463;52.324;5.122;2024-02-21T10:04:34;22.77;;;11.15;;
67274;SDS011;55463;52.324;5.122;2024-02-21T10:06:59;19.65;;;10.43;;
67274;SDS011;55463;52.324;5.122;2024-02-21T10:09:25;25.08;;;10.95;;
67274;SDS011;55463;52.324;5.122;2024-02-21T10:11:54;21.42;;;10.35;;
67274;SDS011;55463;52.324;5.122;2024-02-21T10:14:20;16.98;;;9.90;;
67274;SDS011;55463;52.324;5.122;2024-02-21T10:16:47;17.38;;;9.73;;
67274;SDS011;55463;52.324;5.122;2024-02-21T10:19:20;20.33;;;9.55;;
67274;SDS011;55463;52.324;5.122;2024-02-21T10:22:04;17.70;;;8.90;;
67274;SDS011;55463;52.324;5.122;2024-02-21T10:24:33;17.98;;;9.35;;
67274;SDS011;55463;52.324;5.122;2024-02-21T10:27:05;20.63;;;9.25;;
67274;SDS011;55463;52.324;5.122;2024-02-21T10:29:36;17.58;;;8.60;;
67274;SDS011;55463;52.324;5.122;2024-02-21T10:32:08;16.85;;;9.02;;
67274;SDS011;55463;52.324;5.122;2024-02-21T10:34:38;19.30;;;7.97;;
67274;SDS011;55463;52.324;5.122;2024-02-21T10:37:05;17.00;;;7.70;;
67274;SDS011;55463;52.324;5.122;2024-02-21T10:39:32;22.80;;;7.25;;
67274;SDS011;55463;52.324;5.122;2024-02-21T10:42:02;12.52;;;7.22;;
67274;SDS011;55463;52.324;5.122;2024-02-21T10:44:32;13.50;;;7.18;;
67274;SDS011;55463;52.324;5.122;2024-02-21T10:47:04;15.02;;;7.03;;
67274;SDS011;55463;52.324;5.122;2024-02-21T10:49:41;14.52;;;7.13;;
67274;SDS011;55463;52.324;5.122;2024-02-21T10:57:08;11.68;;;6.63;;
67274;SDS011;55463;52.324;5.122;2024-02-21T10:59:38;13.45;;;7.20;;
67274;SDS011;55463;52.324;5.122;2024-02-21T11:02:05;12.05;;;6.75;;
67274;SDS011;55463;52.324;5.122;2024-02-21T11:04:33;12.18;;;6.40;;
67274;SDS011;55463;52.324;5.122;2024-02-21T11:07:04;17.00;;;6.20;;
67274;SDS011;55463;52.324;5.122;2024-02-21T11:09:31;11.38;;;6.50;;
67274;SDS011;55463;52.324;5.122;2024-02-21T11:11:57;11.27;;;6.20;;
67274;SDS011;55463;52.324;5.122;2024-02-21T11:14:26;10.18;;;6.10;;
67274;SDS011;55463;52.324;5.122;2024-02-21T11:16:53;13.02;;;6.00;;
67274;SDS011;55463;52.324;5.122;2024-02-21T11:21:44;13.38;;;5.60;;
67274;SDS011;55463;52.324;5.122;2024-02-21T11:24:13;11.52;;;5.72;;
67274;SDS011;55463;52.324;5.122;2024-02-21T11:26:50;9.95;;;5.85;;
67274;SDS011;55463;52.324;5.122;2024-02-21T11:29:15;12.05;;;5.78;;
67274;SDS011;55463;52.324;5.122;2024-02-21T11:31:49;9.55;;;6.03;;
67274;SDS011;55463;52.324;5.122;2024-02-21T11:34:17;13.02;;;5.65;;
67274;SDS011;55463;52.324;5.122;2024-02-21T11:36:52;9.00;;;5.40;;
67274;SDS011;55463;52.324;5.122;2024-02-21T11:39:22;11.85;;;5.80;;
67274;SDS011;55463;52.324;5.122;2024-02-21T11:42:06;9.43;;;5.45;;
67274;SDS011;55463;52.324;5.122;2024-02-21T11:44:36;10.93;;;5.55;;
67274;SDS011;55463;52.324;5.122;2024-02-21T11:49:36;11.93;;;6.10;;
67274;SDS011;55463;52.324;5.122;2024-02-21T11:52:03;10.77;;;6.28;;
67274;SDS011;55463;52.324;5.122;2024-02-21T11:54:32;11.57;;;6.38;;
67274;SDS011;55463;52.324;5.122;2024-02-21T11:57:01;10.90;;;6.75;;
67274;SDS011;55463;52.324;5.122;2024-02-21T11:59:29;11.70;;;6.65;;
67274;SDS011;55463;52.324;5.122;2024-02-21T12:02:00;8.95;;;6.70;;
67274;SDS011;55463;52.324;5.122;2024-02-21T12:04:26;12.48;;;6.97;;
67274;SDS011;55463;52.324;5.122;2024-02-21T12:06:54;15.15;;;6.68;;
67274;SDS011;55463;52.324;5.122;2024-02-21T12:09:20;16.25;;;7.07;;
67274;SDS011;55463;52.324;5.122;2024-02-21T12:12:02;13.65;;;6.10;;
67274;SDS011;55463;52.324;5.122;2024-02-21T12:14:32;13.52;;;6.55;;
67274;SDS011;55463;52.324;5.122;2024-02-21T12:17:00;10.07;;;6.07;;
67274;SDS011;55463;52.324;5.122;2024-02-21T12:19:26;12.80;;;7.57;;
67274;SDS011;55463;52.324;5.122;2024-02-21T12:21:54;13.05;;;6.32;;
67274;SDS011;55463;52.324;5.122;2024-02-21T12:24:24;9.48;;;6.50;;
67274;SDS011;55463;52.324;5.122;2024-02-21T12:26:50;10.38;;;6.22;;
67274;SDS011;55463;52.324;5.122;2024-02-21T12:29:20;10.48;;;6.40;;
67274;SDS011;55463;52.324;5.122;2024-02-21T12:31:46;8.50;;;6.30;;
67274;SDS011;55463;52.324;5.122;2024-02-21T12:34:12;11.32;;;6.03;;
67274;SDS011;55463;52.324;5.122;2024-02-21T12:36:41;10.45;;;6.32;;
67274;SDS011;55463;52.324;5.122;2024-02-21T12:39:12;10.38;;;6.55;;
67274;SDS011;55463;52.324;5.122;2024-02-21T12:41:38;10.80;;;6.03;;
67274;SDS011;55463;52.324;5.122;2024-02-21T12:44:05;16.05;;;6.18;;
67274;SDS011;55463;52.324;5.122;2024-02-21T12:46:37;12.48;;;6.00;;
67274;SDS011;55463;52.324;5.122;2024-02-21T12:49:03;8.23;;;5.18;;
67274;SDS011;55463;52.324;5.122;2024-02-21T12:51:29;7.15;;;5.53;;
67274;SDS011;55463;52.324;5.122;2024-02-21T12:53:58;11.73;;;5.93;;
67274;SDS011;55463;52.324;5.122;2024-02-21T12:56:25;10.35;;;6.05;;
67274;SDS011;55463;52.324;5.122;2024-02-21T12:58:56;12.48;;;6.15;;
67274;SDS011;55463;52.324;5.122;2024-02-21T13:01:22;12.98;;;5.80;;
67274;SDS011;55463;52.324;5.122;2024-02-21T13:03:47;11.60;;;5.90;;
67274;SDS011;55463;52.324;5.122;2024-02-21T13:06:12;9.93;;;5.40;;
67274;SDS011;55463;52.324;5.122;2024-02-21T13:08:38;10.35;;;5.80;;
67274;SDS011;55463;52.324;5.122;2024-02-21T13:11:03;8.70;;;5.43;;
67274;SDS011;55463;52.324;5.122;2024-02-21T13:13:29;11.25;;;5.88;;
67274;SDS011;55463;52.324;5.122;2024-02-21T13:15:55;12.18;;;6.07;;
67274;SDS011;55463;52.324;5.122;2024-02-21T13:18:21;8.68;;;5.32;;
67274;SDS011;55463;52.324;5.122;2024-02-21T13:20:47;10.93;;;6.28;;
67274;SDS011;55463;52.324;5.122;2024-02-21T13:23:12;13.35;;;5.18;;
67274;SDS011;55463;52.324;5.122;2024-02-21T13:25:38;10.45;;;6.35;;
67274;SDS011;55463;52.324;5.122;2024-02-21T13:28:03;10.88;;;5.43;;
67274;SDS011;55463;52.324;5.122;2024-02-21T13:30:29;9.15;;;5.43;;
67274;SDS011;55463;52.324;5.122;2024-02-21T13:32:54;10.65;;;5.45;;
67274;SDS011;55463;52.324;5.122;2024-02-21T13:35:20;10.82;;;5.70;;
67274;SDS011;55463;52.324;5.122;2024-02-21T13:37:48;10.60;;;5.82;;
67274;SDS011;55463;52.324;5.122;2024-02-21T13:40:14;10.15;;;6.10;;
67274;SDS011;55463;52.324;5.122;2024-02-21T13:42:39;12.75;;;5.80;;
67274;SDS011;55463;52.324;5.122;2024-02-21T13:45:05;11.10;;;6.15;;
67274;SDS011;55463;52.324;5.122;2024-02-21T13:47:34;10.75;;;6.10;;
67274;SDS011;55463;52.324;5.122;2024-02-21T13:50:04;8.55;;;5.50;;
67274;SDS011;55463;52.324;5.122;2024-02-21T13:52:30;8.30;;;5.78;;
67274;SDS011;55463;52.324;5.122;2024-02-21T13:54:56;9.75;;;5.55;;
67274;SDS011;55463;52.324;5.122;2024-02-21T13:57:22;8.82;;;5.80;;
67274;SDS011;55463;52.324;5.122;2024-02-21T13:59:47;11.07;;;5.05;;
67274;SDS011;55463;52.324;5.122;2024-02-21T14:02:13;15.32;;;6.05;;
67274;SDS011;55463;52.324;5.122;2024-02-21T14:04:38;12.15;;;5.60;;
67274;SDS011;55463;52.324;5.122;2024-02-21T14:07:04;13.68;;;5.28;;
67274;SDS011;55463;52.324;5.122;2024-02-21T14:09:29;10.10;;;5.20;;
67274;SDS011;55463;52.324;5.122;2024-02-21T14:11:55;10.98;;;5.50;;
67274;SDS011;55463;52.324;5.122;2024-02-21T14:14:20;10.23;;;5.57;;
67274;SDS011;55463;52.324;5.122;2024-02-21T14:16:46;9.23;;;4.85;;
67274;SDS011;55463;52.324;5.122;2024-02-21T14:19:13;7.93;;;4.60;;
67274;SDS011;55463;52.324;5.122;2024-02-21T14:21:38;9.52;;;5.15;;
67274;SDS011;55463;52.324;5.122;2024-02-21T14:24:04;12.30;;;5.30;;
67274;SDS011;55463;52.324;5.122;2024-02-21T14:26:30;10.18;;;4.68;;
67274;SDS011;55463;52.324;5.122;2024-02-21T14:28:59;13.27;;;5.25;;
67274;SDS011;55463;52.324;5.122;2024-02-21T14:31:24;9.98;;;4.93;;
67274;SDS011;55463;52.324;5.122;2024-02-21T14:33:50;9.77;;;5.13;;
67274;SDS011;55463;52.324;5.122;2024-02-21T14:36:16;14.52;;;5.50;;
67274;SDS011;55463;52.324;5.122;2024-02-21T14:38:42;9.05;;;5.18;;
67274;SDS011;55463;52.324;5.122;2024-02-21T14:41:08;15.20;;;5.43;;